Time;durP1;ratioP1;P1;durP2;ratioP2;P2;SDS_P1;SDS_P2;PMS_P1;PMS_P2;Temp;Humidity;BMP_temperature;BMP_pressure;BME280_temperature;BME280_humidity;BME280_pressure;Samples;Min_cycle;Max_cycle;Signal;HPM_P1;HPM_P2
2023/09/30 00:01:09;;;;;;;14.63;7.20;;;11.90;99.90;;;;;;5099449;28;20484;-60
2023/09/30 00:03:36;;;;;;;11.67;5.93;;;11.90;99.90;;;;;;5099069;28;20533;-59
2023/09/30 00:06:04;;;;;;;13.30;6.90;;;11.80;99.90;;;;;;5099031;28;20435;-59
2023/09/30 00:08:32;;;;;;;12.80;7.00;;;11.80;99.90;;;;;;5100191;28;20893;-59
2023/09/30 00:10:59;;;;;;;13.33;6.60;;;11.80;99.90;;;;;;5100720;28;20845;-59
2023/09/30 00:13:28;;;;;;;19.87;6.70;;;11.80;99.90;;;;;;5101041;28;20467;-58
2023/09/30 00:15:55;;;;;;;13.20;6.90;;;11.70;99.90;;;;;;5100131;28;20563;-59
2023/09/30 00:18:22;;;;;;;13.80;6.33;;;11.60;99.90;;;;;;5100441;28;20502;-59
2023/09/30 00:20:49;;;;;;;12.60;6.93;;;11.60;99.90;;;;;;5100699;28;20499;-59
2023/09/30 00:23:17;;;;;;;16.97;5.50;;;11.60;99.90;;;;;;5100693;28;20460;-60
2023/09/30 00:25:45;;;;;;;12.20;6.57;;;11.60;99.90;;;;;;5100053;28;20437;-60
2023/09/30 00:28:12;;;;;;;11.80;6.73;;;11.50;99.90;;;;;;5100376;28;20830;-59
2023/09/30 00:30:41;;;;;;;9.60;6.03;;;11.60;99.90;;;;;;5100240;28;20499;-59
2023/09/30 00:33:08;;;;;;;16.70;7.80;;;11.60;99.90;;;;;;5100675;28;20460;-59
2023/09/30 00:35:37;;;;;;;17.03;6.73;;;11.60;99.90;;;;;;5100561;28;20936;-59
2023/09/30 00:38:04;;;;;;;11.10;6.33;;;11.60;99.90;;;;;;5099704;28;20499;-59
2023/09/30 00:40:31;;;;;;;12.30;5.97;;;11.70;99.90;;;;;;5100295;28;20529;-59
2023/09/30 00:42:59;;;;;;;13.03;6.17;;;11.70;99.90;;;;;;5100217;28;20500;-60
2023/09/30 00:45:27;;;;;;;10.50;6.70;;;11.80;99.90;;;;;;5100365;28;20452;-60
2023/09/30 00:47:57;;;;;;;21.83;6.63;;;11.70;99.90;;;;;;5100132;28;20547;-59
2023/09/30 00:50:24;;;;;;;11.10;5.97;;;11.70;99.90;;;;;;5099871;28;20488;-59
2023/09/30 00:52:52;;;;;;;10.13;5.50;;;11.60;99.90;;;;;;5099939;28;20526;-60
2023/09/30 00:55:20;;;;;;;11.83;6.50;;;11.60;99.90;;;;;;5099726;28;20457;-59
2023/09/30 00:57:47;;;;;;;12.53;6.80;;;11.50;99.90;;;;;;5099254;28;20530;-59
2023/09/30 01:00:16;;;;;;;10.30;6.70;;;11.60;99.90;;;;;;5099917;28;20456;-59
2023/09/30 01:02:44;;;;;;;11.27;6.07;;;11.60;99.90;;;;;;5098604;28;20527;-59
2023/09/30 01:05:12;;;;;;;12.97;6.50;;;11.50;99.90;;;;;;5100074;28;20514;-59
2023/09/30 01:07:40;;;;;;;10.00;5.90;;;11.60;99.90;;;;;;5099577;28;20456;-57
2023/09/30 01:10:09;;;;;;;9.20;5.70;;;11.50;99.90;;;;;;5098032;28;20485;-59
2023/09/30 01:12:36;;;;;;;8.50;6.20;;;11.50;99.90;;;;;;5099144;28;20727;-59
2023/09/30 01:15:06;;;;;;;10.67;5.70;;;11.50;99.90;;;;;;5099501;28;20493;-59
2023/09/30 01:17:33;;;;;;;11.17;7.30;;;11.50;99.90;;;;;;5099382;28;20488;-59
2023/09/30 01:20:00;;;;;;;12.67;6.43;;;11.50;99.90;;;;;;5099309;28;20901;-59
2023/09/30 01:22:30;;;;;;;14.63;6.37;;;11.40;99.90;;;;;;5099634;28;20747;-59
2023/09/30 01:24:57;;;;;;;8.80;6.20;;;11.40;99.90;;;;;;5099756;28;20517;-59
2023/09/30 01:27:25;;;;;;;7.17;5.40;;;11.40;99.90;;;;;;5101243;28;20456;-59
2023/09/30 01:29:52;;;;;;;10.40;6.70;;;11.50;99.90;;;;;;5119106;27;20471;-59
2023/09/30 01:32:19;;;;;;;8.57;5.10;;;11.50;99.90;;;;;;5126149;27;20819;-59
2023/09/30 01:34:47;;;;;;;10.07;6.57;;;11.60;99.90;;;;;;5119679;28;20474;-59
2023/09/30 01:37:14;;;;;;;12.27;5.87;;;11.50;99.90;;;;;;5119583;28;20455;-59
2023/09/30 01:39:45;;;;;;;10.80;6.50;;;11.40;99.90;;;;;;5119645;28;20861;-59
2023/09/30 01:42:12;;;;;;;9.63;6.10;;;11.40;99.90;;;;;;5119142;27;20558;-59
2023/09/30 01:44:39;;;;;;;10.63;6.70;;;11.30;99.90;;;;;;5118998;28;20455;-59
2023/09/30 01:47:06;;;;;;;9.10;6.23;;;11.30;99.90;;;;;;5119383;28;20456;-59
2023/09/30 01:49:34;;;;;;;11.57;6.30;;;11.30;99.90;;;;;;5119341;28;20951;-59
2023/09/30 01:52:01;;;;;;;11.13;5.80;;;11.30;99.90;;;;;;5119058;28;20460;-58
2023/09/30 01:54:29;;;;;;;8.03;5.73;;;11.40;99.90;;;;;;5118986;28;20459;-59
2023/09/30 01:56:58;;;;;;;8.73;5.60;;;11.40;99.90;;;;;;5118830;28;20463;-58
2023/09/30 01:59:25;;;;;;;10.50;6.37;;;11.30;99.90;;;;;;5119145;28;20488;-58
2023/09/30 02:01:53;;;;;;;10.00;6.60;;;11.30;99.90;;;;;;5118691;28;20906;-59
2023/09/30 02:04:20;;;;;;;9.07;6.30;;;11.40;99.90;;;;;;5118692;28;20456;-59
2023/09/30 02:06:47;;;;;;;9.40;6.20;;;11.40;99.90;;;;;;5118952;28;20774;-59
2023/09/30 02:09:14;;;;;;;10.47;6.10;;;11.40;99.90;;;;;;5118051;28;20452;-58
2023/09/30 02:11:42;;;;;;;10.10;6.90;;;11.30;99.90;;;;;;5118956;28;20554;-59
2023/09/30 02:14:12;;;;;;;11.07;5.90;;;11.30;99.90;;;;;;5118513;28;20459;-59
2023/09/30 02:16:39;;;;;;;8.57;5.00;;;11.30;99.90;;;;;;5118711;28;20780;-59
2023/09/30 02:19:07;;;;;;;10.87;6.33;;;11.30;99.90;;;;;;5118734;28;20779;-60
2023/09/30 02:21:35;;;;;;;8.43;6.03;;;11.20;99.90;;;;;;5117865;28;20455;-59
2023/09/30 02:24:06;;;;;;;9.10;5.37;;;11.20;99.90;;;;;;5118131;28;20478;-59
2023/09/30 02:26:33;;;;;;;9.63;5.00;;;11.20;99.90;;;;;;5118701;28;20950;-59
2023/09/30 02:29:00;;;;;;;8.20;6.10;;;11.10;99.90;;;;;;5117210;28;20741;-60
2023/09/30 02:31:29;;;;;;;7.63;5.50;;;11.10;99.90;;;;;;5118870;28;20550;-59
2023/09/30 02:33:56;;;;;;;10.60;8.27;;;11.10;99.90;;;;;;5118453;28;20777;-59
2023/09/30 02:36:23;;;;;;;10.67;7.40;;;11.10;99.90;;;;;;5118226;28;20821;-59
2023/09/30 02:38:50;;;;;;;12.30;6.00;;;11.10;99.90;;;;;;5118165;28;20527;-59
2023/09/30 02:41:18;;;;;;;9.03;6.33;;;11.00;99.90;;;;;;5118412;28;20461;-59
2023/09/30 02:43:46;;;;;;;10.03;6.63;;;11.00;99.90;;;;;;5118115;28;20459;-60
2023/09/30 02:46:13;;;;;;;12.97;6.30;;;10.90;99.90;;;;;;5117120;28;20468;-59
2023/09/30 02:48:42;;;;;;;10.90;5.60;;;10.90;99.90;;;;;;5118134;28;20452;-59
2023/09/30 02:51:11;;;;;;;8.47;5.80;;;10.80;99.90;;;;;;5117685;28;20455;-59
2023/09/30 02:53:39;;;;;;;7.80;5.33;;;10.80;99.90;;;;;;5118153;28;20489;-59
2023/09/30 02:56:06;;;;;;;8.00;5.37;;;10.80;99.90;;;;;;5117890;28;20749;-59
2023/09/30 02:58:33;;;;;;;7.60;5.50;;;10.90;99.90;;;;;;5117807;28;20540;-59
2023/09/30 03:01:01;;;;;;;10.87;6.00;;;10.80;99.90;;;;;;5117965;28;20455;-59
2023/09/30 03:03:28;;;;;;;10.43;5.77;;;10.70;99.90;;;;;;5117157;28;20481;-59
2023/09/30 03:05:57;;;;;;;7.73;6.40;;;10.70;99.90;;;;;;5117522;28;20460;-59
2023/09/30 03:08:25;;;;;;;8.40;6.23;;;10.60;99.90;;;;;;5117745;28;20459;-59
2023/09/30 03:10:52;;;;;;;10.93;6.40;;;10.60;99.90;;;;;;5118124;28;20455;-59
2023/09/30 03:13:21;;;;;;;12.17;6.47;;;10.60;99.90;;;;;;5118208;28;20490;-59
2023/09/30 03:15:50;;;;;;;9.83;6.27;;;10.60;99.90;;;;;;5117269;28;20557;-59
2023/09/30 03:18:22;;;;;;;8.67;6.13;;;10.70;99.90;;;;;;5117117;28;20495;-59
2023/09/30 03:20:50;;;;;;;8.47;6.53;;;10.60;99.90;;;;;;5117595;28;20561;-59
2023/09/30 03:23:19;;;;;;;10.83;6.90;;;10.60;99.90;;;;;;5117999;28;20876;-59
2023/09/30 03:25:47;;;;;;;9.40;5.43;;;10.50;99.90;;;;;;5121993;28;20477;-58
2023/09/30 03:28:15;;;;;;;11.40;5.60;;;10.40;99.90;;;;;;5121501;28;20458;-59
2023/09/30 03:30:42;;;;;;;10.17;5.60;;;10.50;99.90;;;;;;5138078;28;20462;-59
2023/09/30 03:33:09;;;;;;;8.57;6.00;;;10.50;99.90;;;;;;5135470;27;20565;-59
2023/09/30 03:35:37;;;;;;;8.80;5.50;;;10.40;99.90;;;;;;5127610;27;20446;-59
2023/09/30 03:38:04;;;;;;;10.80;6.87;;;10.40;99.90;;;;;;5123238;27;20480;-59
2023/09/30 03:40:34;;;;;;;10.50;4.87;;;10.50;99.90;;;;;;5123315;27;20459;-59
2023/09/30 03:43:03;;;;;;;7.30;5.60;;;10.50;99.90;;;;;;5138342;27;20476;-59
2023/09/30 03:45:32;;;;;;;6.70;5.93;;;10.50;99.90;;;;;;5141982;27;20462;-59
2023/09/30 03:48:01;;;;;;;10.03;5.50;;;10.40;99.90;;;;;;5131046;27;20532;-59
2023/09/30 03:50:30;;;;;;;10.13;7.23;;;10.50;99.90;;;;;;5120967;28;20737;-59
2023/09/30 03:53:03;;;;;;;10.23;6.30;;;10.40;99.90;;;;;;5121278;28;20932;-59
2023/09/30 03:55:33;;;;;;;7.03;5.60;;;10.40;99.90;;;;;;5121685;28;20465;-59
2023/09/30 03:58:00;;;;;;;8.67;6.00;;;10.40;99.90;;;;;;5125721;27;20470;-59
2023/09/30 04:00:28;;;;;;;9.37;6.00;;;10.40;99.90;;;;;;5130573;27;20451;-59
2023/09/30 04:02:58;;;;;;;10.03;6.03;;;10.40;99.90;;;;;;5141485;27;20486;-59
2023/09/30 04:05:29;;;;;;;11.93;5.80;;;10.40;99.90;;;;;;5141151;27;20462;-59
2023/09/30 04:07:56;;;;;;;8.23;6.13;;;10.40;99.90;;;;;;5139893;27;20458;-59
2023/09/30 04:10:23;;;;;;;8.57;6.10;;;10.40;99.90;;;;;;5140106;27;20425;-59
2023/09/30 04:12:52;;;;;;;8.90;5.63;;;10.40;99.90;;;;;;5141370;27;20458;-59
2023/09/30 04:15:19;;;;;;;28.90;7.80;;;10.30;99.90;;;;;;5141858;27;20950;-59
2023/09/30 04:17:47;;;;;;;15.83;6.57;;;10.20;99.90;;;;;;5141386;27;20943;-59
2023/09/30 04:20:22;;;;;;;8.93;6.07;;;10.20;99.90;;;;;;5141306;27;20778;-59
2023/09/30 04:22:51;;;;;;;8.30;5.20;;;10.20;99.90;;;;;;5141677;27;20433;-59
2023/09/30 04:25:19;;;;;;;8.50;5.90;;;10.20;99.90;;;;;;5141492;27;20962;-59
2023/09/30 04:27:47;;;;;;;12.93;6.20;;;10.20;99.90;;;;;;5141757;27;20454;-60
2023/09/30 04:30:16;;;;;;;7.27;5.83;;;10.20;99.90;;;;;;5141114;27;20455;-59
2023/09/30 04:32:44;;;;;;;9.27;6.23;;;10.10;99.90;;;;;;5141262;27;20458;-59
2023/09/30 04:35:11;;;;;;;9.10;6.57;;;10.10;99.90;;;;;;5141633;27;20477;-59
2023/09/30 04:37:39;;;;;;;8.50;5.33;;;10.00;99.90;;;;;;5141383;27;20485;-59
2023/09/30 04:40:15;;;;;;;5.77;5.17;;;10.10;99.90;;;;;;5129903;27;20519;-59
2023/09/30 04:42:43;;;;;;;6.90;5.57;;;10.10;99.90;;;;;;5120594;28;20527;-59
2023/09/30 04:45:12;;;;;;;8.93;6.57;;;10.10;99.90;;;;;;5119807;28;20455;-59
2023/09/30 04:47:41;;;;;;;11.47;6.57;;;10.00;99.90;;;;;;5120648;27;20460;-59
2023/09/30 04:50:09;;;;;;;9.13;6.27;;;10.00;99.90;;;;;;5120478;28;20906;-58
2023/09/30 04:52:37;;;;;;;8.57;6.53;;;10.00;99.90;;;;;;5120740;28;20455;-59
2023/09/30 04:55:05;;;;;;;7.60;5.93;;;10.00;99.90;;;;;;5120208;28;20452;-59
2023/09/30 04:57:32;;;;;;;11.57;6.07;;;9.80;99.90;;;;;;5120310;28;20929;-59
2023/09/30 04:59:59;;;;;;;8.50;6.20;;;9.80;99.90;;;;;;5120398;28;20786;-59
2023/09/30 05:02:27;;;;;;;11.83;6.27;;;9.80;99.90;;;;;;5119363;28;20939;-58
2023/09/30 05:04:55;;;;;;;6.53;5.83;;;9.80;99.90;;;;;;5120259;28;20451;-59
2023/09/30 05:07:23;;;;;;;23.63;6.20;;;9.70;99.90;;;;;;5120035;28;20455;-59
2023/09/30 05:09:50;;;;;;;32.20;6.77;;;9.80;99.90;;;;;;5118944;28;20482;-59
2023/09/30 05:12:17;;;;;;;10.87;6.67;;;9.80;99.90;;;;;;5119807;28;20953;-59
2023/09/30 05:14:45;;;;;;;11.50;7.47;;;9.80;99.90;;;;;;5119113;28;20465;-58
2023/09/30 05:17:13;;;;;;;7.40;6.43;;;9.90;99.90;;;;;;5118897;28;20509;-59
2023/09/30 05:19:40;;;;;;;11.83;5.00;;;9.90;99.90;;;;;;5118705;28;20494;-59
2023/09/30 05:22:09;;;;;;;8.33;5.80;;;9.90;99.90;;;;;;5118682;28;20505;-58
2023/09/30 05:24:36;;;;;;;8.37;6.13;;;10.00;99.90;;;;;;5118617;28;20865;-59
2023/09/30 05:27:03;;;;;;;8.40;5.40;;;10.00;99.90;;;;;;5119122;28;20494;-59
2023/09/30 05:29:33;;;;;;;5.87;4.33;;;10.00;99.90;;;;;;5119161;28;20448;-59
2023/09/30 05:32:00;;;;;;;7.57;4.67;;;10.00;99.90;;;;;;5119528;28;20459;-59
2023/09/30 05:34:29;;;;;;;12.70;5.03;;;9.90;99.90;;;;;;5119499;28;20550;-59
2023/09/30 05:36:56;;;;;;;5.70;4.50;;;9.90;99.90;;;;;;5119504;28;20455;-59
2023/09/30 05:39:25;;;;;;;16.90;5.47;;;9.80;99.90;;;;;;5119325;28;20483;-58
2023/09/30 05:41:52;;;;;;;6.90;5.00;;;9.90;99.90;;;;;;5118981;28;20962;-58
2023/09/30 05:44:20;;;;;;;10.90;6.33;;;9.90;99.90;;;;;;5117709;28;20494;-63
2023/09/30 05:46:47;;;;;;;6.97;5.70;;;10.00;99.90;;;;;;5119587;28;20811;-62
2023/09/30 05:49:14;;;;;;;8.87;6.17;;;10.10;99.90;;;;;;5119435;28;20505;-62
2023/09/30 05:51:42;;;;;;;8.50;6.50;;;10.20;99.90;;;;;;5119083;28;20880;-62
2023/09/30 05:54:11;;;;;;;10.67;6.70;;;10.30;99.90;;;;;;5119354;28;20550;-62
2023/09/30 05:56:42;;;;;;;13.07;7.20;;;10.40;99.90;;;;;;5118891;28;20459;-62
2023/09/30 05:59:09;;;;;;;18.43;8.67;;;10.50;99.90;;;;;;5119294;28;20498;-62
2023/09/30 06:01:37;;;;;;;28.93;13.00;;;10.60;99.90;;;;;;5118420;28;20554;-62
2023/09/30 06:04:05;;;;;;;47.13;13.57;;;10.70;99.90;;;;;;5118644;28;20874;-62
2023/09/30 06:06:32;;;;;;;31.10;14.27;;;10.90;99.90;;;;;;5118953;28;20456;-62
2023/09/30 06:09:00;;;;;;;29.83;13.40;;;10.90;99.90;;;;;;5118896;28;20749;-62
2023/09/30 06:11:28;;;;;;;25.60;14.80;;;10.90;99.90;;;;;;5118819;28;20452;-62
2023/09/30 06:13:58;;;;;;;28.73;15.43;;;11.00;99.90;;;;;;5118375;28;20463;-62
2023/09/30 06:16:26;;;;;;;29.30;13.10;;;11.20;99.90;;;;;;5118532;28;20513;-62
2023/09/30 06:18:54;;;;;;;34.10;13.80;;;11.00;99.90;;;;;;5118451;28;20490;-62
2023/09/30 06:21:23;;;;;;;37.17;15.23;;;11.00;99.90;;;;;;5119087;28;20466;-62
2023/09/30 06:23:51;;;;;;;37.37;15.70;;;11.20;99.90;;;;;;5118424;28;20478;-62
2023/09/30 06:26:20;;;;;;;31.27;13.90;;;11.20;99.90;;;;;;5118375;28;20459;-62
2023/09/30 06:28:48;;;;;;;27.73;14.70;;;11.20;99.90;;;;;;5118718;28;20459;-61
2023/09/30 06:31:17;;;;;;;22.70;14.10;;;11.20;99.90;;;;;;5118833;28;20459;-62
2023/09/30 06:33:44;;;;;;;21.93;13.50;;;11.20;99.90;;;;;;5118554;28;20546;-62
2023/09/30 06:36:13;;;;;;;22.47;13.03;;;11.20;99.90;;;;;;5118399;28;20540;-62
2023/09/30 06:38:41;;;;;;;21.93;14.00;;;11.30;99.90;;;;;;5118029;28;20459;-62
2023/09/30 06:41:09;;;;;;;22.63;14.20;;;11.30;99.90;;;;;;5118522;28;20504;-61
2023/09/30 06:43:36;;;;;;;22.50;12.43;;;11.40;99.90;;;;;;5118608;28;20546;-61
2023/09/30 06:46:09;;;;;;;21.30;13.70;;;11.40;99.90;;;;;;5118174;27;20500;-61
2023/09/30 06:48:40;;;;;;;22.77;13.70;;;11.50;99.90;;;;;;5118359;28;20483;-61
2023/09/30 06:51:07;;;;;;;19.03;13.40;;;11.60;99.90;;;;;;5117859;28;20772;-60
2023/09/30 06:53:35;;;;;;;18.77;12.13;;;11.70;99.90;;;;;;5117672;28;20506;-61
2023/09/30 06:56:06;;;;;;;27.87;13.30;;;11.80;99.90;;;;;;5117968;28;20491;-61
2023/09/30 06:58:33;;;;;;;21.70;13.27;;;11.90;99.90;;;;;;5118078;28;20456;-61
2023/09/30 07:01:01;;;;;;;20.07;12.90;;;11.90;99.90;;;;;;5117892;28;20963;-61
2023/09/30 07:03:28;;;;;;;16.27;11.77;;;11.90;99.90;;;;;;5117259;28;20487;-61
2023/09/30 07:06:00;;;;;;;17.60;12.70;;;12.00;99.90;;;;;;5117859;28;20739;-61
2023/09/30 07:08:28;;;;;;;14.20;10.80;;;12.10;99.90;;;;;;5117597;28;20467;-61
2023/09/30 07:10:56;;;;;;;15.20;10.77;;;12.30;99.90;;;;;;5117976;28;20554;-62
2023/09/30 07:13:23;;;;;;;14.40;11.60;;;12.50;99.90;;;;;;5117913;28;20972;-61
2023/09/30 07:15:51;;;;;;;14.67;10.50;;;12.60;99.90;;;;;;5117349;28;20460;-62
2023/09/30 07:18:19;;;;;;;16.10;11.17;;;12.70;99.90;;;;;;5117858;28;20467;-61
2023/09/30 07:20:46;;;;;;;13.40;9.80;;;12.80;99.90;;;;;;5117848;28;20789;-61
2023/09/30 07:23:15;;;;;;;13.20;8.70;;;13.10;99.90;;;;;;5117966;28;20459;-61
2023/09/30 07:25:43;;;;;;;11.43;9.27;;;13.10;99.90;;;;;;5117993;28;20459;-61
2023/09/30 07:28:12;;;;;;;13.23;8.23;;;13.40;99.90;;;;;;5117503;28;20452;-61
2023/09/30 07:30:40;;;;;;;9.90;8.30;;;13.50;99.90;;;;;;5117510;28;20494;-62
2023/09/30 07:33:08;;;;;;;11.23;8.97;;;13.50;99.90;;;;;;5117692;28;20799;-62
2023/09/30 07:35:36;;;;;;;11.10;9.00;;;13.80;99.90;;;;;;5117710;28;20831;-61
2023/09/30 07:38:05;;;;;;;10.43;7.87;;;14.00;99.90;;;;;;5117365;28;20767;-61
2023/09/30 07:40:34;;;;;;;24.27;9.17;;;14.20;99.90;;;;;;5117307;28;20491;-61
2023/09/30 07:43:02;;;;;;;9.90;8.00;;;14.20;99.90;;;;;;5117774;28;20763;-61
2023/09/30 07:45:29;;;;;;;9.67;7.57;;;14.30;99.90;;;;;;5117878;28;20499;-61
2023/09/30 07:47:58;;;;;;;12.87;8.27;;;14.50;99.90;;;;;;5117115;28;20811;-61
2023/09/30 07:50:25;;;;;;;10.03;7.93;;;14.70;99.90;;;;;;5117561;28;20485;-62
2023/09/30 07:52:53;;;;;;;9.57;7.50;;;14.70;99.90;;;;;;5117321;28;20451;-62
2023/09/30 07:55:20;;;;;;;9.70;8.60;;;14.40;99.90;;;;;;5106737;28;20533;-62
2023/09/30 07:57:49;;;;;;;12.50;7.40;;;14.40;99.90;;;;;;5096120;28;20914;-63
2023/09/30 08:00:17;;;;;;;9.73;7.10;;;14.50;99.90;;;;;;5095190;28;20492;-62
2023/09/30 08:02:45;;;;;;;10.60;8.27;;;14.50;99.90;;;;;;5095841;28;20488;-63
2023/09/30 08:05:12;;;;;;;12.00;9.03;;;14.90;99.90;;;;;;5096708;28;20510;-64
2023/09/30 08:07:39;;;;;;;12.43;8.33;;;15.20;99.90;;;;;;5096466;28;20460;-63
2023/09/30 08:10:12;;;;;;;8.80;7.03;;;15.40;99.90;;;;;;5095810;28;20453;-63
2023/09/30 08:12:39;;;;;;;11.70;8.00;;;15.50;99.90;;;;;;5096992;28;20759;-64
2023/09/30 08:15:11;;;;;;;11.30;7.90;;;15.80;99.90;;;;;;5097087;28;20464;-63
2023/09/30 08:17:39;;;;;;;11.00;8.20;;;15.70;99.90;;;;;;5114491;28;20455;-64
2023/09/30 08:20:08;;;;;;;11.47;7.27;;;16.10;99.90;;;;;;5120192;28;20490;-63
2023/09/30 08:22:35;;;;;;;11.87;8.47;;;16.40;99.90;;;;;;5120864;28;20512;-63
2023/09/30 08:25:03;;;;;;;11.73;7.40;;;16.40;99.90;;;;;;5121189;28;20458;-63
2023/09/30 08:27:31;;;;;;;11.80;7.40;;;16.30;99.90;;;;;;5121140;28;20461;-64
2023/09/30 08:29:59;;;;;;;10.97;8.67;;;16.60;99.90;;;;;;5120707;28;20462;-63
2023/09/30 08:32:28;;;;;;;13.50;7.73;;;16.70;99.90;;;;;;5119127;28;20868;-63
2023/09/30 08:34:55;;;;;;;15.77;8.93;;;16.70;99.90;;;;;;5116789;28;20455;-63
2023/09/30 08:37:22;;;;;;;11.30;7.53;;;16.80;99.90;;;;;;5117343;28;20451;-64
2023/09/30 08:39:50;;;;;;;9.87;6.17;;;17.00;99.90;;;;;;5118051;27;20943;-64
2023/09/30 08:42:20;;;;;;;12.10;8.27;;;17.00;99.90;;;;;;5119502;28;20483;-63
2023/09/30 08:44:48;;;;;;;11.97;7.60;;;17.20;99.90;;;;;;5117857;28;20447;-63
2023/09/30 08:47:16;;;;;;;11.33;7.07;;;17.60;99.90;;;;;;5118602;28;20451;-63
2023/09/30 08:49:45;;;;;;;10.23;6.90;;;17.70;99.90;;;;;;5118390;28;20458;-63
2023/09/30 08:52:14;;;;;;;11.27;7.30;;;17.70;99.90;;;;;;5119795;28;20485;-63
2023/09/30 08:54:42;;;;;;;11.63;7.33;;;17.90;99.90;;;;;;5119554;28;20487;-64
2023/09/30 08:57:11;;;;;;;12.03;6.03;;;18.20;99.90;;;;;;5119540;28;20459;-64
2023/09/30 08:59:42;;;;;;;9.73;6.20;;;18.50;99.90;;;;;;5119330;28;20534;-64
2023/09/30 09:02:10;;;;;;;16.53;7.80;;;18.50;99.90;;;;;;5118488;28;20522;-65
2023/09/30 09:04:41;;;;;;;12.73;6.50;;;18.70;99.90;;;;;;5119738;27;20483;-62
2023/09/30 09:07:10;;;;;;;12.60;6.50;;;18.80;1.00;;;;;;5120529;28;20823;-63
2023/09/30 09:09:38;;;;;;;14.10;6.73;;;18.50;1.00;;;;;;5120440;27;20451;-62
2023/09/30 09:12:09;;;;;;;11.40;6.23;;;19.00;1.00;;;;;;5119646;27;20455;-62
2023/09/30 09:14:40;;;;;;;13.20;6.80;;;19.10;1.00;;;;;;5119808;28;20460;-62
2023/09/30 09:17:09;;;;;;;12.23;6.23;;;19.40;1.00;;;;;;5118070;28;20508;-61
2023/09/30 09:19:37;;;;;;;12.57;6.17;;;19.80;1.00;;;;;;5119001;27;20894;-61
2023/09/30 09:22:06;;;;;;;10.70;5.87;;;20.30;34.50;;;;;;5118826;28;20463;-62
2023/09/30 09:24:38;;;;;;;8.43;5.03;;;20.50;1.00;;;;;;5119344;28;20466;-62
2023/09/30 09:27:07;;;;;;;10.00;5.07;;;20.60;1.00;;;;;;5119346;28;20933;-61
2023/09/30 09:29:36;;;;;;;9.27;5.07;;;20.50;1.00;;;;;;5118837;28;20555;-62
2023/09/30 09:32:11;;;;;;;8.87;5.03;;;20.60;1.00;;;;;;5119145;28;20460;-62
2023/09/30 09:34:39;;;;;;;10.97;5.37;;;20.70;1.00;;;;;;5119464;28;20466;-62
2023/09/30 09:37:17;;;;;;;9.67;4.70;;;20.80;1.00;;;;;;5118676;28;20534;-62
2023/09/30 09:39:57;;;;;;;8.03;5.23;;;20.60;1.00;;;;;;5118719;28;20511;-61
2023/09/30 09:42:29;;;;;;;12.40;4.70;;;20.40;1.00;;;;;;5119058;28;20462;-61
2023/09/30 09:44:59;;;;;;;9.87;4.90;;;20.30;1.00;;;;;;5118955;28;20471;-61
2023/09/30 09:47:27;;;;;;;7.50;4.40;;;20.50;1.00;;;;;;5119437;28;20496;-61
2023/09/30 09:49:55;;;;;;;9.27;4.90;;;20.60;1.00;;;;;;5118863;28;20456;-61
2023/09/30 09:52:24;;;;;;;7.33;5.30;;;20.60;1.00;;;;;;5119172;28;20505;-61
2023/09/30 09:54:54;;;;;;;10.70;4.60;;;20.20;1.00;;;;;;5118419;28;20462;-61
2023/09/30 09:57:25;;;;;;;8.03;5.27;;;20.10;1.00;;;;;;5118191;28;20840;-61
2023/09/30 09:59:53;;;;;;;9.80;5.87;;;20.20;99.90;;;;;;5118011;28;20462;-61
2023/09/30 10:02:22;;;;;;;14.50;6.07;;;20.20;1.00;;;;;;5118439;28;20583;-62
2023/09/30 10:04:50;;;;;;;8.93;5.27;;;20.40;99.90;;;;;;5118944;28;20487;-62
2023/09/30 10:07:23;;;;;;;7.07;5.17;;;20.60;99.90;;;;;;5118470;28;20495;-61
2023/09/30 10:09:53;;;;;;;8.30;6.27;;;19.80;99.90;;;;;;5117803;28;20459;-62
2023/09/30 10:12:23;;;;;;;9.63;5.93;;;20.10;99.90;;;;;;5118521;28;20459;-61
2023/09/30 10:14:50;;;;;;;7.87;5.30;;;19.50;99.90;;;;;;5119267;28;20748;-62
2023/09/30 10:17:18;;;;;;;12.83;6.17;;;19.80;99.90;;;;;;5118964;28;20802;-61
2023/09/30 10:20:06;;;;;;;6.70;4.40;;;19.90;99.90;;;;;;5118632;28;20848;-61
2023/09/30 10:22:34;;;;;;;8.37;5.23;;;19.80;99.90;;;;;;5117920;28;20965;-62
2023/09/30 10:25:01;;;;;;;11.17;4.70;;;19.60;99.90;;;;;;5118653;28;20463;-61
2023/09/30 10:27:39;;;;;;;5.43;4.20;;;19.10;99.90;;;;;;5118741;28;20502;-61
2023/09/30 10:30:13;;;;;;;8.20;4.97;;;19.30;99.90;;;;;;5117923;28;20425;-61
2023/09/30 10:33:14;;;;;;;9.13;5.93;;;19.30;99.90;;;;;;5116216;28;20510;-61
2023/09/30 10:35:49;;;;;;;8.77;6.50;;;19.90;99.90;;;;;;5118711;27;20473;-61
2023/09/30 10:38:40;;;;;;;9.23;5.53;;;20.40;99.90;;;;;;5120818;27;20462;-61
2023/09/30 10:41:09;;;;;;;9.40;6.10;;;20.80;99.90;;;;;;5127589;27;20897;-62
2023/09/30 10:43:40;;;;;;;8.90;6.00;;;20.40;99.90;;;;;;5137570;27;20466;-61
2023/09/30 10:46:32;;;;;;;6.07;5.10;;;20.00;99.90;;;;;;5138303;27;20461;-61
2023/09/30 10:49:32;;;;;;;5.03;4.53;;;19.30;99.90;;;;;;5113470;27;20472;-61
2023/09/30 10:52:01;;;;;;;10.60;6.07;;;19.30;67.00;;;;;;5096035;28;20517;-61
2023/09/30 10:54:29;;;;;;;7.97;4.90;;;19.10;30.10;;;;;;5095531;28;20477;-61
2023/09/30 10:56:58;;;;;;;8.50;5.87;;;19.30;96.40;;;;;;5110486;28;20537;-61
2023/09/30 10:59:30;;;;;;;7.10;6.10;;;20.00;99.90;;;;;;5096578;28;20961;-61
2023/09/30 11:02:03;;;;;;;8.60;5.37;;;20.30;99.90;;;;;;5097338;28;20553;-61
2023/09/30 11:04:31;;;;;;;8.03;5.57;;;20.30;99.90;;;;;;5096939;28;20495;-59
2023/09/30 11:07:02;;;;;;;8.53;6.27;;;20.80;99.90;;;;;;5097325;28;20519;-60
2023/09/30 11:09:29;;;;;;;9.80;5.47;;;21.40;99.90;;;;;;5096691;28;20917;-61
2023/09/30 11:11:56;;;;;;;6.83;5.90;;;21.60;96.40;;;;;;5111694;28;20524;-60
2023/09/30 11:14:25;;;;;;;10.27;6.40;;;20.90;54.40;;;;;;5116768;28;20505;-60
2023/09/30 11:16:56;;;;;;;9.43;5.50;;;21.10;1.00;;;;;;5116565;28;20455;-60
2023/09/30 11:19:24;;;;;;;5.63;4.60;;;21.70;1.00;;;;;;5117303;28;20729;-59
2023/09/30 11:21:53;;;;;;;6.30;5.37;;;22.10;99.90;;;;;;5115801;28;20544;-61
2023/09/30 11:24:20;;;;;;;5.70;4.80;;;22.30;1.00;;;;;;5115960;28;20443;-61
2023/09/30 11:26:48;;;;;;;7.00;5.23;;;22.40;99.90;;;;;;5115633;28;20478;-61
2023/09/30 11:29:17;;;;;;;6.37;5.17;;;22.60;99.90;;;;;;5116100;28;20524;-60
2023/09/30 11:31:46;;;;;;;6.60;5.43;;;22.60;99.90;;;;;;5114007;28;20521;-60
2023/09/30 11:34:17;;;;;;;7.30;5.23;;;22.40;99.90;;;;;;5116336;28;20748;-60
2023/09/30 11:36:50;;;;;;;7.27;4.80;;;22.10;74.90;;;;;;5115012;28;20558;-61
2023/09/30 11:39:24;;;;;;;6.37;4.67;;;22.10;43.50;;;;;;5113774;28;20464;-61
2023/09/30 11:41:52;;;;;;;5.03;4.30;;;21.70;1.00;;;;;;5115109;28;20487;-60
2023/09/30 11:44:20;;;;;;;6.70;5.00;;;21.60;1.00;;;;;;5112701;28;20459;-61
2023/09/30 11:46:52;;;;;;;6.63;4.83;;;21.90;1.00;;;;;;5117098;28;20761;-61
2023/09/30 11:49:29;;;;;;;6.73;5.00;;;22.10;1.00;;;;;;5116247;28;20455;-61
2023/09/30 11:51:56;;;;;;;6.40;4.70;;;22.30;1.00;;;;;;5115643;28;20451;-61
2023/09/30 11:54:24;;;;;;;6.37;4.87;;;22.60;44.40;;;;;;5119927;28;20455;-60
2023/09/30 11:56:51;;;;;;;9.77;5.73;;;23.00;99.90;;;;;;5119939;28;20463;-60
2023/09/30 11:59:22;;;;;;;7.43;4.67;;;23.10;99.90;;;;;;5108841;28;20477;-60
2023/09/30 12:01:49;;;;;;;6.50;4.80;;;23.50;14.70;;;;;;5115708;27;20570;-61
2023/09/30 12:04:19;;;;;;;5.80;4.67;;;23.40;1.00;;;;;;5124985;27;20467;-61
2023/09/30 12:06:48;;;;;;;8.07;4.70;;;23.60;2.00;;;;;;5118162;28;20472;-61
2023/09/30 12:09:16;;;;;;;6.03;4.60;;;23.50;1.00;;;;;;5109030;28;20472;-60
2023/09/30 12:11:45;;;;;;;5.53;5.03;;;23.60;1.00;;;;;;5113449;27;20474;-61
2023/09/30 12:14:13;;;;;;;8.60;5.97;;;23.60;1.00;;;;;;5130150;27;20471;-61
2023/09/30 12:16:41;;;;;;;9.40;5.37;;;23.40;1.00;;;;;;5134701;27;20463;-61
2023/09/30 12:19:08;;;;;;;6.30;4.73;;;22.70;99.90;;;;;;5135705;27;20506;-61
2023/09/30 12:21:36;;;;;;;9.10;5.20;;;22.70;99.90;;;;;;5134528;27;20487;-60
2023/09/30 12:24:05;;;;;;;7.70;4.27;;;22.50;99.90;;;;;;5121223;27;20474;-61
2023/09/30 12:26:35;;;;;;;6.23;4.43;;;22.60;99.90;;;;;;5123953;27;20533;-60
2023/09/30 12:29:03;;;;;;;5.87;4.97;;;22.80;99.90;;;;;;5111194;28;20467;-60
2023/09/30 12:31:30;;;;;;;7.53;4.77;;;22.90;1.00;;;;;;5102074;27;20468;-60
2023/09/30 12:33:57;;;;;;;9.17;5.80;;;23.00;99.90;;;;;;5123136;27;20499;-60
2023/09/30 12:36:24;;;;;;;6.40;4.83;;;23.20;99.90;;;;;;5118310;28;20459;-61
2023/09/30 12:38:52;;;;;;;7.70;5.20;;;23.50;99.90;;;;;;5098310;28;20979;-60
2023/09/30 12:41:21;;;;;;;11.03;5.60;;;23.70;99.90;;;;;;5129979;27;20830;-60
2023/09/30 12:43:48;;;;;;;5.77;5.17;;;24.00;99.90;;;;;;5138899;27;20546;-60
2023/09/30 12:46:16;;;;;;;5.97;4.27;;;23.90;99.90;;;;;;5117588;27;20448;-60
2023/09/30 12:48:44;;;;;;;7.43;5.03;;;23.90;99.90;;;;;;5117961;27;20466;-60
2023/09/30 12:51:12;;;;;;;7.23;5.27;;;24.10;1.00;;;;;;5116497;28;20451;-60